TJSJ/SJU METAR and TAF weather

Enter ICAO airport designator
Station Type Date Time Source
TJSJ METAR 2021/09/20 04:56 UTC NOAA

TJSJ 200456Z 12005KT 10SM -RA FEW023 SCT041 OVC060 26/24 A2991 RMK AO2 SLP128 P0036 T02610239


Station Type Date Time Source
TJSJ Decoded METAR 2021/09/20 04:56 UTC NOAA

San Juan, Luis Munoz Marin International Airport, PR, United States (TJSJ) 18-27N 066-00W
Sep 20, 2021 - 12:56 AM EDT / 2021.09.20 0456 UTC
Wind: from the ESE (120 degrees) at 6 MPH (5 KT):0
Visibility: 10 mile(s):0
Sky conditions: overcast
Weather: light rain
Precipitation last hour: 0.36 inches
Temperature: 79.0 F (26.1 C)
Dew Point: 75.0 F (23.9 C)
Relative Humidity: 87%
Pressure (altimeter): 29.91 in. Hg (1012 hPa)
ob: TJSJ 200456Z 12005KT 10SM -RA FEW023 SCT041 OVC060 26/24 A2991 RMK AO2 SLP128 P0036 T02610239
cycle: 5

Station Type Date Time Source
TJSJ TAF 2021/09/20 06:30 UTC NOAA

TAF TJSJ 200524Z 2006/2106 05008KT P6SM -SHRA VCTS SCT025CB SCT040 BKN060
TEMPO 2006/2008 05010G20KT 4SM -TSRA BKN025CB
FM201400 06012KT P6SM VCTS SCT025CB SCT040
FM202200 08008KT P6SM VCSH SCT035 SCT050

Example: see airport list